Time,TemperatureF,DewpointF,PressureIn,WindDirection,WindDirectionDegrees,WindSpeedMPH,WindSpeedGustMPH,Humidity,HourlyPrecipIn,Conditions,Clouds,dailyrainin,SoftwareType,DateUTC
2013-04-15 00:00:00,63.6,25.1,29.52,SSW,212,5.0,18.0,23,0.00,,,0.00,Wunderground v.1.15,2013-04-15 06:00:00,
2013-04-15 00:10:00,63.3,24.8,29.52,SW,223,6.0,6.0,23,0.00,,,0.00,Wunderground v.1.15,2013-04-15 06:10:00,
2013-04-15 00:20:00,62.7,25.3,29.51,SW,232,3.0,3.0,24,0.00,,,0.00,Wunderground v.1.15,2013-04-15 06:20:00,
2013-04-15 00:30:00,62.5,25.2,29.51,WSW,244,5.0,5.0,24,0.00,,,0.00,Wunderground v.1.15,2013-04-15 06:30:00,
2013-04-15 00:40:00,62.3,25.0,29.51,WSW,238,5.0,5.0,24,0.00,,,0.00,Wunderground v.1.15,2013-04-15 06:40:00,
2013-04-15 00:50:00,62.0,25.7,29.51,WSW,241,5.0,5.0,25,0.00,,,0.00,Wunderground v.1.15,2013-04-15 06:50:00,
2013-04-15 01:00:00,61.6,25.4,29.52,SW,233,4.0,6.0,25,0.00,,,0.00,Wunderground v.1.15,2013-04-15 07:00:00,
2013-04-15 01:50:00,59.7,24.7,29.52,SSE,164,2.0,13.0,26,0.00,,,0.00,Wunderground v.1.15,2013-04-15 07:50:00,
2013-04-15 02:00:00,59.5,24.5,29.53,South,171,2.0,2.0,26,0.00,,,0.00,Wunderground v.1.15,2013-04-15 08:00:00,
2013-04-15 02:10:00,59.3,23.4,29.53,South,171,2.0,13.0,25,0.00,,,0.00,Wunderground v.1.15,2013-04-15 08:10:00,
2013-04-15 02:20:00,59.3,23.4,29.53,South,171,2.0,13.0,25,0.00,,,0.00,Wunderground v.1.15,2013-04-15 08:20:00,
2013-04-15 02:30:00,59.5,23.6,29.53,South,186,4.0,4.0,25,0.00,,,0.00,Wunderground v.1.15,2013-04-15 08:30:00,
2013-04-15 02:40:00,58.9,23.1,29.53,SSE,161,2.0,13.0,25,0.00,,,0.00,Wunderground v.1.15,2013-04-15 08:40:00,
2013-04-15 02:50:00,58.0,23.3,29.53,SSE,161,0.0,13.0,26,0.00,,,0.00,Wunderground v.1.15,2013-04-15 08:50:00,
2013-04-15 03:00:00,57.2,23.5,29.53,SSE,161,0.0,13.0,27,0.00,,,0.00,Wunderground v.1.15,2013-04-15 09:00:00,
2013-04-15 03:10:00,56.4,25.3,29.53,SSE,161,0.0,13.0,30,0.00,,,0.00,Wunderground v.1.15,2013-04-15 09:10:00,
2013-04-15 03:20:00,55.5,25.3,29.53,SSE,161,0.0,13.0,31,0.00,,,0.00,Wunderground v.1.15,2013-04-15 09:20:00,
2013-04-15 03:30:00,54.5,25.2,29.53,SSE,161,0.0,13.0,32,0.00,,,0.00,Wunderground v.1.15,2013-04-15 09:30:00,
2013-04-15 03:40:00,55.1,23.4,29.53,SSE,161,1.0,13.0,29,0.00,,,0.00,Wunderground v.1.15,2013-04-15 09:40:00,
2013-04-15 03:50:00,56.8,24.0,29.54,SSE,155,1.0,13.0,28,0.00,,,0.00,Wunderground v.1.15,2013-04-15 09:50:00,
2013-04-15 04:00:00,56.4,23.7,29.54,SSE,150,1.0,1.0,28,0.00,,,0.00,Wunderground v.1.15,2013-04-15 10:00:00,
2013-04-15 04:10:00,56.8,24.0,29.55,SSE,149,1.0,1.0,28,0.00,,,0.00,Wunderground v.1.15,2013-04-15 10:10:00,
2013-04-15 04:20:00,56.4,23.7,29.55,SSE,149,0.0,13.0,28,0.00,,,0.00,Wunderground v.1.15,2013-04-15 10:20:00,
2013-04-15 04:30:00,55.7,23.1,29.54,SSE,150,0.0,13.0,28,0.00,,,0.00,Wunderground v.1.15,2013-04-15 10:30:00,
2013-04-15 04:40:00,54.9,24.0,29.54,SSE,149,0.0,13.0,30,0.00,,,0.00,Wunderground v.1.15,2013-04-15 10:40:00,
2013-04-15 04:50:00,54.0,23.2,29.55,SSE,149,0.0,13.0,30,0.00,,,0.00,Wunderground v.1.15,2013-04-15 10:50:00,
2013-04-15 05:00:00,53.9,23.1,29.54,SSE,149,2.0,2.0,30,0.00,,,0.00,Wunderground v.1.15,2013-04-15 11:00:00,
2013-04-15 05:10:00,53.6,23.7,29.55,SSE,150,0.0,13.0,31,0.00,,,0.00,Wunderground v.1.15,2013-04-15 11:10:00,
2013-04-15 05:20:00,52.7,23.6,29.55,SSE,149,0.0,13.0,32,0.00,,,0.00,Wunderground v.1.15,2013-04-15 11:20:00,
2013-04-15 05:30:00,51.6,24.1,29.55,SSE,149,0.0,13.0,34,0.00,,,0.00,Wunderground v.1.15,2013-04-15 11:30:00,
2013-04-15 05:40:00,50.7,24.0,29.55,SSE,149,0.0,13.0,35,0.00,,,0.00,Wunderground v.1.15,2013-04-15 11:40:00,
2013-04-15 05:50:00,50.3,23.7,29.55,SSE,149,0.0,13.0,35,0.00,,,0.00,Wunderground v.1.15,2013-04-15 11:50:00,
2013-04-15 06:00:00,49.9,24.0,29.56,SSE,149,0.0,13.0,36,0.00,,,0.00,Wunderground v.1.15,2013-04-15 12:00:00,
2013-04-15 06:10:00,49.4,24.2,29.56,SSE,150,0.0,13.0,37,0.00,,,0.00,Wunderground v.1.15,2013-04-15 12:10:00,
2013-04-15 06:20:00,49.4,23.5,29.57,SSE,149,0.0,13.0,36,0.00,,,0.00,Wunderground v.1.15,2013-04-15 12:20:00,
2013-04-15 06:30:00,49.9,23.3,29.57,SSE,149,0.0,13.0,35,0.00,,,0.00,Wunderground v.1.15,2013-04-15 12:30:00,
2013-04-15 06:50:00,49.8,23.9,29.58,SSE,149,0.0,13.0,36,0.00,,,0.00,Wunderground v.1.15,2013-04-15 12:50:00,
2013-04-15 07:00:00,49.1,23.9,29.59,SSE,150,0.0,13.0,37,0.00,,,0.00,Wunderground v.1.15,2013-04-15 13:00:00,
2013-04-15 07:10:00,49.8,23.9,29.59,SSE,150,0.0,13.0,36,0.00,,,0.00,Wunderground v.1.15,2013-04-15 13:10:00,
2013-04-15 07:20:00,51.1,23.7,29.60,SSE,150,0.0,13.0,34,0.00,,,0.00,Wunderground v.1.15,2013-04-15 13:20:00,
2013-04-15 07:30:00,52.3,24.0,29.60,SSE,149,1.0,13.0,33,0.00,,,0.00,Wunderground v.1.15,2013-04-15 13:30:00,
2013-04-15 07:40:00,53.2,24.1,29.60,SSE,150,1.0,13.0,32,0.00,,,0.00,Wunderground v.1.15,2013-04-15 13:40:00,
2013-04-15 07:50:00,54.5,25.2,29.60,SSE,149,1.0,1.0,32,0.00,,,0.00,Wunderground v.1.15,2013-04-15 13:50:00,
2013-04-15 08:00:00,55.9,24.1,29.61,SSE,150,1.0,13.0,29,0.00,,,0.00,Wunderground v.1.15,2013-04-15 14:00:00,
2013-04-15 08:10:00,56.5,23.7,29.61,SSE,149,1.0,13.0,28,0.00,,,0.00,Wunderground v.1.15,2013-04-15 14:10:00,
2013-04-15 08:20:00,56.8,24.0,29.61,SSE,149,4.0,13.0,28,0.00,,,0.00,Wunderground v.1.15,2013-04-15 14:20:00,
2013-04-15 08:30:00,57.2,24.3,29.61,SSE,161,4.0,13.0,28,0.00,,,0.00,Wunderground v.1.15,2013-04-15 14:30:00,
2013-04-15 08:40:00,57.7,23.9,29.61,South,182,4.0,4.0,27,0.00,,,0.00,Wunderground v.1.15,2013-04-15 14:40:00,
2013-04-15 08:50:00,58.4,24.5,29.60,SSE,148,4.0,13.0,27,0.00,,,0.00,Wunderground v.1.15,2013-04-15 14:50:00,
2013-04-15 09:00:00,58.9,24.0,29.60,SSW,204,4.0,13.0,26,0.00,,,0.00,Wunderground v.1.15,2013-04-15 15:00:00,
2013-04-15 09:10:00,59.1,24.2,29.60,South,190,5.0,5.0,26,0.00,,,0.00,Wunderground v.1.15,2013-04-15 15:10:00,
2013-04-15 09:20:00,60.3,25.2,29.60,SSE,167,2.0,13.0,26,0.00,,,0.00,Wunderground v.1.15,2013-04-15 15:20:00,
2013-04-15 09:30:00,61.3,25.1,29.60,South,178,2.0,2.0,25,0.00,,,0.00,Wunderground v.1.15,2013-04-15 15:30:00,
2013-04-15 09:40:00,61.9,24.7,29.59,SSW,209,3.0,13.0,24,0.00,,,0.00,Wunderground v.1.15,2013-04-15 15:40:00,
2013-04-15 09:50:00,61.7,25.5,29.60,SSW,208,5.0,5.0,25,0.00,,,0.00,Wunderground v.1.15,2013-04-15 15:50:00,
2013-04-15 10:00:00,62.4,25.1,29.60,South,191,4.0,13.0,24,0.00,,,0.00,Wunderground v.1.15,2013-04-15 16:00:00,
2013-04-15 10:10:00,62.7,26.3,29.60,SE,145,4.0,13.0,25,0.00,,,0.00,Wunderground v.1.15,2013-04-15 16:10:00,
2013-04-15 10:20:00,62.9,25.5,29.60,SSE,156,6.0,13.0,24,0.00,,,0.00,Wunderground v.1.15,2013-04-15 16:20:00,
2013-04-15 10:30:00,63.5,26.0,29.59,SSE,148,7.0,13.0,24,0.00,,,0.00,Wunderground v.1.15,2013-04-15 16:30:00,
2013-04-15 10:40:00,64.3,25.7,29.59,SSW,200,7.0,13.0,23,0.00,,,0.00,Wunderground v.1.15,2013-04-15 16:40:00,
2013-04-15 10:50:00,64.5,24.8,29.59,SSW,192,8.0,13.0,22,0.00,,,0.00,Wunderground v.1.15,2013-04-15 16:50:00,
2013-04-15 11:00:00,64.8,25.0,29.59,SSE,167,9.0,9.0,22,0.00,,,0.00,Wunderground v.1.15,2013-04-15 17:00:00,
2013-04-15 11:10:00,65.2,24.2,29.58,SSE,154,8.0,14.0,21,0.00,,,0.00,Wunderground v.1.15,2013-04-15 17:10:00,
2013-04-15 11:20:00,65.3,24.3,29.58,SSW,202,10.0,10.0,21,0.00,,,0.00,Wunderground v.1.15,2013-04-15 17:20:00,
2013-04-15 11:30:00,66.2,25.1,29.58,South,169,8.0,13.0,21,0.00,,,0.00,Wunderground v.1.15,2013-04-15 17:30:00,
2013-04-15 11:40:00,66.3,25.2,29.58,South,169,9.0,9.0,21,0.00,,,0.00,Wunderground v.1.15,2013-04-15 17:40:00,
2013-04-15 11:50:00,66.8,24.4,29.57,South,175,8.0,8.0,20,0.00,,,0.00,Wunderground v.1.15,2013-04-15 17:50:00,
2013-04-15 12:00:00,66.9,24.5,29.56,SE,142,8.0,8.0,20,0.00,,,0.00,Wunderground v.1.15,2013-04-15 18:00:00,
2013-04-15 12:10:00,67.4,23.7,29.56,South,175,8.0,8.0,19,0.00,,,0.00,Wunderground v.1.15,2013-04-15 18:10:00,
2013-04-15 12:20:00,67.5,25.0,29.55,SSE,159,9.0,13.0,20,0.00,,,0.00,Wunderground v.1.15,2013-04-15 18:20:00,
2013-04-15 12:30:00,68.1,24.2,29.55,SSE,163,8.0,8.0,19,0.00,,,0.00,Wunderground v.1.15,2013-04-15 18:30:00,
2013-04-15 12:40:00,68.8,22.2,29.54,South,190,9.0,13.0,17,0.00,,,0.00,Wunderground v.1.15,2013-04-15 18:40:00,
2013-04-15 12:50:00,69.3,22.6,29.53,SSW,192,6.0,6.0,17,0.00,,,0.00,Wunderground v.1.15,2013-04-15 18:50:00,
2013-04-15 13:00:00,70.8,22.3,29.53,South,184,5.0,13.0,16,0.00,,,0.00,Wunderground v.1.15,2013-04-15 19:00:00,
2013-04-15 13:10:00,70.9,22.4,29.51,SSW,203,7.0,13.0,16,0.00,,,0.00,Wunderground v.1.15,2013-04-15 19:10:00,
2013-04-15 13:20:00,71.4,21.3,29.51,SW,230,8.0,13.0,15,0.00,,,0.00,Wunderground v.1.15,2013-04-15 19:20:00,
2013-04-15 13:30:00,72.4,22.1,29.49,South,182,6.0,6.0,15,0.00,,,0.00,Wunderground v.1.15,2013-04-15 19:30:00,
2013-04-15 13:40:00,73.2,21.1,29.49,SSW,205,9.0,13.0,14,0.00,,,0.00,Wunderground v.1.15,2013-04-15 19:40:00,
2013-04-15 13:50:00,74.0,20.0,29.48,SW,220,8.0,8.0,13,0.00,,,0.00,Wunderground v.1.15,2013-04-15 19:50:00,
2013-04-15 14:00:00,73.7,19.8,29.48,SSW,193,9.0,9.0,13,0.00,,,0.00,Wunderground v.1.15,2013-04-15 20:00:00,
2013-04-15 14:10:00,74.5,18.5,29.47,SW,227,7.0,13.0,12,0.00,,,0.00,Wunderground v.1.15,2013-04-15 20:10:00,
2013-04-15 14:20:00,75.3,19.1,29.46,SSE,166,7.0,7.0,12,0.00,,,0.00,Wunderground v.1.15,2013-04-15 20:20:00,
2013-04-15 14:30:00,76.2,15.6,29.45,SSW,198,8.0,8.0,10,0.00,,,0.00,Wunderground v.1.15,2013-04-15 20:30:00,
2013-04-15 14:40:00,77.3,16.4,29.45,SW,230,10.0,13.0,10,0.00,,,0.00,Wunderground v.1.15,2013-04-15 20:40:00,
2013-04-15 14:50:00,77.8,14.4,29.45,SW,228,13.0,13.0,9,0.00,,,0.00,Wunderground v.1.15,2013-04-15 20:50:00,
2013-04-15 15:00:00,78.3,14.8,29.43,South,188,11.0,13.0,9,0.00,,,0.00,Wunderground v.1.15,2013-04-15 21:00:00,
2013-04-15 15:10:00,80.1,13.4,29.43,South,191,8.0,13.0,8,0.00,,,0.00,Wunderground v.1.15,2013-04-15 21:10:00,
2013-04-15 15:20:00,80.2,13.5,29.42,SW,234,9.0,9.0,8,0.00,,,0.00,Wunderground v.1.15,2013-04-15 21:20:00,
2013-04-15 15:30:00,79.8,13.2,29.41,SW,227,8.0,8.0,8,0.00,,,0.00,Wunderground v.1.15,2013-04-15 21:30:00,
2013-04-15 15:40:00,80.3,10.6,29.41,SW,234,11.0,11.0,7,0.00,,,0.00,Wunderground v.1.15,2013-04-15 21:40:00,
2013-04-15 15:50:00,80.6,10.8,29.40,SW,227,12.0,12.0,7,0.00,,,0.00,Wunderground v.1.15,2013-04-15 21:50:00,
2013-04-15 16:00:00,80.7,10.9,29.40,West,259,12.0,13.0,7,0.00,,,0.00,Wunderground v.1.15,2013-04-15 22:00:00,
2013-04-15 16:10:00,81.1,7.7,29.40,SW,228,9.0,13.0,6,0.00,,,0.00,Wunderground v.1.15,2013-04-15 22:10:00,
2013-04-15 16:20:00,80.5,7.3,29.39,SSW,209,12.0,12.0,6,0.00,,,0.00,Wunderground v.1.15,2013-04-15 22:20:00,
2013-04-15 16:30:00,81.7,8.1,29.40,WSW,244,11.0,13.0,6,0.00,,,0.00,Wunderground v.1.15,2013-04-15 22:30:00,
2013-04-15 16:40:00,81.6,8.1,29.39,WSW,254,11.0,11.0,6,0.00,,,0.00,Wunderground v.1.15,2013-04-15 22:40:00,
2013-04-15 16:50:00,81.7,8.1,29.40,WSW,240,12.0,12.0,6,0.00,,,0.00,Wunderground v.1.15,2013-04-15 22:50:00,
2013-04-15 17:00:00,81.3,7.8,29.40,SW,224,11.0,11.0,6,0.00,,,0.00,Wunderground v.1.15,2013-04-15 23:00:00,
2013-04-15 17:10:00,80.5,10.7,29.40,NNW,331,12.0,13.0,7,0.00,,,0.00,Wunderground v.1.15,2013-04-15 23:10:00,
2013-04-15 17:20:00,80.2,10.5,29.40,West,268,11.0,13.0,7,0.00,,,0.00,Wunderground v.1.15,2013-04-15 23:20:00,
2013-04-15 17:30:00,79.7,10.1,29.41,WSW,239,12.0,19.0,7,0.00,,,0.00,Wunderground v.1.15,2013-04-15 23:30:00,
2013-04-15 17:40:00,79.6,10.0,29.41,WSW,255,10.0,15.0,7,0.00,,,0.00,Wunderground v.1.15,2013-04-15 23:40:00,
2013-04-15 17:50:00,79.2,9.8,29.42,SW,215,10.0,15.0,7,0.00,,,0.00,Wunderground v.1.15,2013-04-15 23:50:00,
2013-04-15 18:00:00,78.5,12.2,29.42,WSW,251,11.0,11.0,8,0.00,,,0.00,Wunderground v.1.15,2013-04-16 00:00:00,
2013-04-15 18:10:00,78.4,12.2,29.42,WSW,254,10.0,18.0,8,0.00,,,0.00,Wunderground v.1.15,2013-04-16 00:10:00,
2013-04-15 18:20:00,78.2,12.0,29.43,West,270,11.0,18.0,8,0.00,,,0.00,Wunderground v.1.15,2013-04-16 00:20:00,
2013-04-15 18:30:00,77.2,13.9,29.43,West,272,12.0,12.0,9,0.00,,,0.00,Wunderground v.1.15,2013-04-16 00:30:00,
2013-04-15 18:40:00,76.5,13.4,29.44,West,259,12.0,12.0,9,0.00,,,0.00,Wunderground v.1.15,2013-04-16 00:40:00,
2013-04-15 18:50:00,76.2,13.2,29.45,West,262,10.0,10.0,9,0.00,,,0.00,Wunderground v.1.15,2013-04-16 00:50:00,
2013-04-15 19:00:00,75.9,13.0,29.45,WNW,300,9.0,16.0,9,0.00,,,0.00,Wunderground v.1.15,2013-04-16 01:00:00,
2013-04-15 19:10:00,75.0,12.3,29.46,WSW,254,11.0,13.0,9,0.00,,,0.00,Wunderground v.1.15,2013-04-16 01:10:00,
2013-04-15 19:20:00,74.4,14.2,29.46,WSW,244,10.0,16.0,10,0.00,,,0.00,Wunderground v.1.15,2013-04-16 01:20:00,
2013-04-15 19:30:00,73.9,13.8,29.47,West,259,10.0,14.0,10,0.00,,,0.00,Wunderground v.1.15,2013-04-16 01:30:00,
2013-04-15 19:40:00,73.3,13.4,29.48,West,267,12.0,12.0,10,0.00,,,0.00,Wunderground v.1.15,2013-04-16 01:40:00,
2013-04-15 19:50:00,72.6,12.8,29.48,WSW,240,9.0,13.0,10,0.00,,,0.00,Wunderground v.1.15,2013-04-16 01:50:00,
2013-04-15 20:00:00,72.2,12.5,29.49,WSW,251,9.0,13.0,10,0.00,,,0.00,Wunderground v.1.15,2013-04-16 02:00:00,
2013-04-15 20:10:00,71.8,12.2,29.49,WSW,257,8.0,13.0,10,0.00,,,0.00,Wunderground v.1.15,2013-04-16 02:10:00,
2013-04-15 20:20:00,71.3,14.0,29.50,WSW,256,6.0,13.0,11,0.00,,,0.00,Wunderground v.1.15,2013-04-16 02:20:00,
2013-04-15 20:30:00,70.9,13.7,29.50,WSW,244,6.0,13.0,11,0.00,,,0.00,Wunderground v.1.15,2013-04-16 02:30:00,
2013-04-15 20:40:00,70.4,13.3,29.51,WSW,257,5.0,13.0,11,0.00,,,0.00,Wunderground v.1.15,2013-04-16 02:40:00,
2013-04-15 20:50:00,69.9,14.9,29.52,WSW,248,6.0,13.0,12,0.00,,,0.00,Wunderground v.1.15,2013-04-16 02:50:00,
2013-04-15 21:00:00,69.7,14.8,29.53,WSW,254,7.0,13.0,12,0.00,,,0.00,Wunderground v.1.15,2013-04-16 03:00:00,
2013-04-15 21:10:00,69.3,16.3,29.53,WSW,249,5.0,13.0,13,0.00,,,0.00,Wunderground v.1.15,2013-04-16 03:10:00,
2013-04-15 21:20:00,68.7,15.8,29.55,WSW,244,3.0,3.0,13,0.00,,,0.00,Wunderground v.1.15,2013-04-16 03:20:00,
2013-04-15 21:30:00,68.2,15.4,29.55,WSW,246,1.0,1.0,13,0.00,,,0.00,Wunderground v.1.15,2013-04-16 03:30:00,
2013-04-15 21:40:00,67.6,16.6,29.56,WSW,248,1.0,1.0,14,0.00,,,0.00,Wunderground v.1.15,2013-04-16 03:40:00,
2013-04-15 21:50:00,67.1,16.3,29.56,WSW,250,1.0,1.0,14,0.00,,,0.00,Wunderground v.1.15,2013-04-16 03:50:00,
2013-04-15 22:00:00,66.6,17.4,29.56,WSW,250,0.0,13.0,15,0.00,,,0.00,Wunderground v.1.15,2013-04-16 04:00:00,
2013-04-15 22:10:00,66.0,17.0,29.57,WSW,250,1.0,1.0,15,0.00,,,0.00,Wunderground v.1.15,2013-04-16 04:10:00,
2013-04-15 22:20:00,65.4,18.0,29.57,WSW,250,0.0,13.0,16,0.00,,,0.00,Wunderground v.1.15,2013-04-16 04:20:00,
2013-04-15 22:30:00,64.5,18.7,29.57,WSW,250,0.0,13.0,17,0.00,,,0.00,Wunderground v.1.15,2013-04-16 04:30:00,
2013-04-15 22:40:00,63.7,18.0,29.58,SSW,192,2.0,2.0,17,0.00,,,0.00,Wunderground v.1.15,2013-04-16 04:40:00,
2013-04-15 22:50:00,63.5,17.8,29.58,South,188,1.0,1.0,17,0.00,,,0.00,Wunderground v.1.15,2013-04-16 04:50:00,
2013-04-15 23:00:00,63.2,17.6,29.57,South,188,0.0,13.0,17,0.00,,,0.00,Wunderground v.1.15,2013-04-16 05:00:00,
2013-04-15 23:10:00,62.5,17.0,29.58,South,188,0.0,13.0,17,0.00,,,0.00,Wunderground v.1.15,2013-04-16 05:10:00,
2013-04-15 23:20:00,62.2,18.1,29.58,South,188,0.0,13.0,18,0.00,,,0.00,Wunderground v.1.15,2013-04-16 05:20:00,
2013-04-15 23:30:00,61.8,16.5,29.59,South,188,1.0,1.0,17,0.00,,,0.00,Wunderground v.1.15,2013-04-16 05:30:00,
2013-04-15 23:40:00,62.1,15.3,29.59,SSE,167,2.0,13.0,16,0.00,,,0.00,Wunderground v.1.15,2013-04-16 05:40:00,
2013-04-15 23:50:00,63.1,14.6,29.59,South,187,5.0,13.0,15,0.00,,,0.00,Wunderground v.1.15,2013-04-16 05:50:00,